Time,TemperatureF,DewpointF,PressureIn,WindDirection,WindDirectionDegrees,WindSpeedMPH,WindSpeedGustMPH,Humidity,HourlyPrecipIn,Conditions,Clouds,dailyrainin,SoftwareType,DateUTC
2013-05-04 00:00:00,43.5,31.0,30.18,ENE,67,4.9,8.5,61,0.00,,,0.00,VWS V14.01,2013-05-04 04:00:00,
2013-05-04 00:01:00,43.3,30.8,30.18,NE,44,1.8,4.9,61,0.00,,,0.00,VWS V14.01,2013-05-04 04:01:00,
2013-05-04 00:06:00,43.3,30.8,30.18,ENE,70,5.8,7.1,61,0.00,,,0.00,VWS V14.01,2013-05-04 04:06:00,
2013-05-04 00:11:00,43.2,30.6,30.18,NE,56,4.4,7.1,61,0.00,,,0.00,VWS V14.01,2013-05-04 04:11:00,
2013-05-04 00:16:00,43.2,31.0,30.18,NE,49,4.9,7.1,62,0.00,,,0.00,VWS V14.01,2013-05-04 04:16:00,
2013-05-04 00:21:00,43.0,30.9,30.18,ENE,69,5.8,8.0,62,0.00,,,0.00,VWS V14.01,2013-05-04 04:21:00,
2013-05-04 00:26:00,43.0,30.9,30.18,ENE,59,4.9,8.0,62,0.00,,,0.00,VWS V14.01,2013-05-04 04:26:00,
2013-05-04 00:31:00,42.8,30.7,30.18,ENE,61,1.8,8.0,62,0.00,,,0.00,VWS V14.01,2013-05-04 04:31:00,
2013-05-04 00:36:00,42.4,30.4,30.18,ENE,65,1.8,8.0,62,0.00,,,0.00,VWS V14.01,2013-05-04 04:36:00,
2013-05-04 00:41:00,42.3,30.2,30.18,ENE,71,4.0,8.0,62,0.00,,,0.00,VWS V14.01,2013-05-04 04:41:00,
2013-05-04 00:46:00,42.1,30.0,30.18,ENE,57,4.4,8.0,62,0.00,,,0.00,VWS V14.01,2013-05-04 04:46:00,
2013-05-04 00:51:00,41.7,30.1,30.18,ENE,73,4.0,8.0,63,0.00,,,0.00,VWS V14.01,2013-05-04 04:51:00,
2013-05-04 00:56:00,41.7,30.1,30.18,ENE,74,4.0,8.0,63,0.00,,,0.00,VWS V14.01,2013-05-04 04:56:00,
2013-05-04 01:00:00,43.5,31.0,30.18,ENE,67,4.9,8.5,61,0.00,,SKC,0.00,VWS V15.00,2013-05-04 05:00:00,
2013-05-04 01:01:00,41.5,29.9,30.18,ENE,68,1.8,1.8,63,0.00,,,0.00,VWS V14.01,2013-05-04 05:01:00,
2013-05-04 01:06:00,41.2,29.6,30.18,ENE,71,4.9,4.9,63,0.00,,,0.00,VWS V14.01,2013-05-04 05:06:00,
2013-05-04 01:11:00,41.0,29.4,30.18,East,80,1.8,5.3,63,0.00,,,0.00,VWS V14.01,2013-05-04 05:11:00,
2013-05-04 01:16:00,40.8,29.2,30.18,East,80,1.8,5.3,63,0.00,,,0.00,VWS V14.01,2013-05-04 05:16:00,
2013-05-04 01:21:00,40.6,29.4,30.18,East,80,1.8,5.3,64,0.00,,,0.00,VWS V14.01,2013-05-04 05:21:00,
2013-05-04 01:26:00,40.5,29.3,30.18,East,80,1.8,5.3,64,0.00,,,0.00,VWS V14.01,2013-05-04 05:26:00,
2013-05-04 01:31:00,40.5,29.3,30.18,East,80,1.8,5.3,64,0.00,,,0.00,VWS V14.01,2013-05-04 05:31:00,
2013-05-04 01:36:00,40.3,29.1,30.18,East,80,1.8,5.3,64,0.00,,,0.00,VWS V14.01,2013-05-04 05:36:00,
2013-05-04 01:41:00,40.1,28.9,30.18,East,79,1.8,5.3,64,0.00,,,0.00,VWS V14.01,2013-05-04 05:41:00,
2013-05-04 01:46:00,39.9,28.8,30.18,East,79,1.8,5.3,64,0.00,,,0.00,VWS V14.01,2013-05-04 05:46:00,
2013-05-04 01:51:00,39.7,28.6,30.18,ENE,76,1.8,5.3,64,0.00,,,0.00,VWS V14.01,2013-05-04 05:51:00,
2013-05-04 01:56:00,39.7,28.6,30.18,ENE,60,4.4,5.3,64,0.00,,,0.00,VWS V14.01,2013-05-04 05:56:00,
2013-05-04 02:00:00,41.5,29.9,30.18,ENE,68,1.8,8.0,63,0.00,,,0.00,VWS V15.00,2013-05-04 06:00:00,
2013-05-04 02:01:00,39.7,28.6,30.18,ENE,69,5.8,5.8,64,0.00,,,0.00,VWS V14.01,2013-05-04 06:01:00,
2013-05-04 02:06:00,39.7,29.0,30.15,ENE,58,4.4,5.8,65,0.00,,,0.00,VWS V14.01,2013-05-04 06:06:00,
2013-05-04 02:11:00,39.7,29.0,30.15,ENE,60,1.8,5.8,65,0.00,,,0.00,VWS V14.01,2013-05-04 06:11:00,
2013-05-04 02:16:00,39.7,29.0,30.15,ENE,62,4.9,5.8,65,0.00,,,0.00,VWS V14.01,2013-05-04 06:16:00,
2013-05-04 02:21:00,39.7,29.0,30.15,ENE,57,4.4,8.0,65,0.00,,,0.00,VWS V14.01,2013-05-04 06:21:00,
2013-05-04 02:26:00,39.9,29.1,30.15,ENE,67,4.9,8.0,65,0.00,,,0.00,VWS V14.01,2013-05-04 06:26:00,
2013-05-04 02:31:00,39.9,29.5,30.15,ENE,72,4.0,8.0,66,0.00,,,0.00,VWS V14.01,2013-05-04 06:31:00,
2013-05-04 02:36:00,40.1,29.7,30.15,ENE,69,4.9,8.0,66,0.00,,,0.00,VWS V14.01,2013-05-04 06:36:00,
2013-05-04 02:41:00,40.3,29.8,30.15,ENE,71,4.9,8.0,66,0.00,,,0.00,VWS V14.01,2013-05-04 06:41:00,
2013-05-04 02:46:00,40.3,29.8,30.15,ENE,75,5.3,8.0,66,0.00,,,0.00,VWS V14.01,2013-05-04 06:46:00,
2013-05-04 02:51:00,40.3,29.8,30.15,ENE,65,5.8,9.8,66,0.00,,,0.00,VWS V14.01,2013-05-04 06:51:00,
2013-05-04 02:56:00,40.5,30.0,30.15,ENE,69,4.9,9.8,66,0.00,,,0.00,VWS V14.01,2013-05-04 06:56:00,
2013-05-04 03:00:00,39.7,28.6,30.18,ENE,66,4.4,5.3,64,0.00,,,0.00,VWS V15.00,2013-05-04 07:00:00,
2013-05-04 03:01:00,40.5,30.4,30.15,ENE,69,5.3,5.3,67,0.00,,,0.00,VWS V14.01,2013-05-04 07:01:00,
2013-05-04 03:06:00,40.6,30.5,30.15,ENE,65,4.9,5.8,67,0.00,,,0.00,VWS V14.01,2013-05-04 07:06:00,
2013-05-04 03:11:00,40.5,30.4,30.15,ENE,76,5.3,5.8,67,0.00,,,0.00,VWS V14.01,2013-05-04 07:11:00,
2013-05-04 03:16:00,40.5,30.4,30.15,ENE,64,5.3,5.8,67,0.00,,,0.00,VWS V14.01,2013-05-04 07:16:00,
2013-05-04 03:21:00,40.5,30.4,30.15,NE,38,5.8,6.7,67,0.00,,,0.00,VWS V14.01,2013-05-04 07:21:00,
2013-05-04 03:26:00,40.5,30.4,30.15,ENE,64,6.7,6.7,67,0.00,,,0.00,VWS V14.01,2013-05-04 07:26:00,
2013-05-04 03:31:00,40.6,30.9,30.15,ENE,62,5.8,7.6,68,0.00,,,0.00,VWS V14.01,2013-05-04 07:31:00,
2013-05-04 03:36:00,40.6,30.9,30.15,ENE,60,4.4,7.6,68,0.00,,,0.00,VWS V14.01,2013-05-04 07:36:00,
2013-05-04 03:41:00,40.6,30.9,30.15,ENE,64,4.4,7.6,68,0.00,,,0.00,VWS V14.01,2013-05-04 07:41:00,
2013-05-04 03:46:00,40.6,30.9,30.15,ENE,63,4.4,7.6,68,0.00,,,0.00,VWS V14.01,2013-05-04 07:46:00,
2013-05-04 03:51:00,40.6,30.9,30.15,NE,56,1.8,7.6,68,0.00,,,0.00,VWS V14.01,2013-05-04 07:51:00,
2013-05-04 03:56:00,40.5,30.8,30.15,ENE,57,1.8,7.6,68,0.00,,,0.00,VWS V14.01,2013-05-04 07:56:00,
2013-05-04 04:00:00,40.5,30.4,30.15,ENE,65,5.3,9.8,67,0.00,,,0.00,VWS V15.00,2013-05-04 08:00:00,
2013-05-04 04:01:00,40.5,30.8,30.15,ENE,59,4.9,5.3,68,0.00,,,0.00,VWS V14.01,2013-05-04 08:01:00,
2013-05-04 04:06:00,40.3,30.6,30.15,East,81,4.4,5.8,68,0.00,,,0.00,VWS V14.01,2013-05-04 08:06:00,
2013-05-04 04:11:00,40.3,30.9,30.15,ENE,78,1.8,5.8,69,0.00,,,0.00,VWS V14.01,2013-05-04 08:11:00,
2013-05-04 04:16:00,40.3,30.9,30.15,East,83,1.8,5.8,69,0.00,,,0.00,VWS V14.01,2013-05-04 08:16:00,
2013-05-04 04:21:00,40.1,30.8,30.15,ENE,75,1.8,5.8,69,0.00,,,0.00,VWS V14.01,2013-05-04 08:21:00,
2013-05-04 04:26:00,40.1,30.8,30.15,East,85,1.8,5.8,69,0.00,,,0.00,VWS V14.01,2013-05-04 08:26:00,
2013-05-04 04:31:00,39.9,30.6,30.15,East,85,1.8,5.8,69,0.00,,,0.00,VWS V14.01,2013-05-04 08:31:00,
2013-05-04 04:36:00,39.7,30.4,30.15,East,85,1.8,5.8,69,0.00,,,0.00,VWS V14.01,2013-05-04 08:36:00,
2013-05-04 04:41:00,39.7,30.4,30.15,East,91,4.4,5.8,69,0.00,,,0.00,VWS V14.01,2013-05-04 08:41:00,
2013-05-04 04:46:00,39.6,30.2,30.15,ENE,77,1.8,5.8,69,0.00,,,0.00,VWS V14.01,2013-05-04 08:46:00,
2013-05-04 04:51:00,39.4,30.1,30.15,ENE,76,4.0,5.8,69,0.00,,,0.00,VWS V14.01,2013-05-04 08:51:00,
2013-05-04 04:56:00,39.4,30.4,30.15,ENE,78,1.8,5.8,70,0.00,,,0.00,VWS V14.01,2013-05-04 08:56:00,
2013-05-04 05:00:00,40.5,30.8,30.15,ENE,68,1.8,7.6,68,0.00,,,0.00,VWS V15.00,2013-05-04 09:00:00,
2013-05-04 05:01:00,39.4,30.4,30.15,ENE,78,1.8,1.8,70,0.00,,,0.00,VWS V14.01,2013-05-04 09:01:00,
2013-05-04 05:06:00,39.6,30.6,30.15,ENE,78,1.8,4.9,70,0.00,,,0.00,VWS V14.01,2013-05-04 09:06:00,
2013-05-04 05:11:00,39.6,30.6,30.15,ENE,78,1.8,4.9,70,0.00,,,0.00,VWS V14.01,2013-05-04 09:11:00,
2013-05-04 05:16:00,39.4,30.8,30.15,ENE,78,1.8,4.9,71,0.00,,,0.00,VWS V14.01,2013-05-04 09:16:00,
2013-05-04 05:21:00,39.4,30.8,30.15,ENE,70,1.8,4.9,71,0.00,,,0.00,VWS V14.01,2013-05-04 09:21:00,
2013-05-04 05:26:00,39.2,30.6,30.15,ENE,70,1.8,4.9,71,0.00,,,0.00,VWS V14.01,2013-05-04 09:26:00,
2013-05-04 05:31:00,39.2,30.6,30.15,ENE,70,1.8,4.9,71,0.00,,,0.00,VWS V14.01,2013-05-04 09:31:00,
2013-05-04 05:36:00,39.4,30.8,30.15,East,85,1.8,4.9,71,0.00,,,0.00,VWS V14.01,2013-05-04 09:36:00,
2013-05-04 05:41:00,39.6,31.3,30.15,East,85,1.8,4.9,72,0.00,,,0.00,VWS V14.01,2013-05-04 09:41:00,
2013-05-04 05:46:00,39.4,30.8,30.15,East,85,1.8,4.9,71,0.00,,,0.00,VWS V14.01,2013-05-04 09:46:00,
2013-05-04 05:51:00,39.2,30.6,30.15,East,85,1.8,4.9,71,0.00,,,0.00,VWS V14.01,2013-05-04 09:51:00,
2013-05-04 05:56:00,39.2,30.6,30.15,East,85,1.8,4.9,71,0.00,,,0.00,VWS V14.01,2013-05-04 09:56:00,
2013-05-04 06:00:00,39.4,30.4,30.15,ENE,78,1.8,5.8,70,0.00,,,0.00,VWS V15.00,2013-05-04 10:00:00,
2013-05-04 06:01:00,39.2,30.6,30.15,East,85,1.8,1.8,71,0.00,,,0.00,VWS V14.01,2013-05-04 10:01:00,
2013-05-04 06:06:00,39.4,31.1,30.15,East,85,1.8,1.8,72,0.00,,,0.00,VWS V14.01,2013-05-04 10:06:00,
2013-05-04 06:11:00,39.6,31.3,30.15,East,85,1.8,1.8,72,0.00,,,0.00,VWS V14.01,2013-05-04 10:11:00,
2013-05-04 06:16:00,39.7,31.5,30.15,East,85,1.8,1.8,72,0.00,,,0.00,VWS V14.01,2013-05-04 10:16:00,
2013-05-04 06:21:00,39.9,32.0,30.15,East,85,1.8,1.8,73,0.00,,,0.00,VWS V14.01,2013-05-04 10:21:00,
2013-05-04 06:26:00,40.3,32.3,30.15,East,85,1.8,1.8,73,0.00,,,0.00,VWS V14.01,2013-05-04 10:26:00,
2013-05-04 06:31:00,40.6,32.7,30.15,East,85,1.8,1.8,73,0.00,,,0.00,VWS V14.01,2013-05-04 10:31:00,
2013-05-04 06:36:00,41.0,33.0,30.15,East,85,1.8,1.8,73,0.00,,,0.00,VWS V14.01,2013-05-04 10:36:00,
2013-05-04 06:41:00,41.2,33.2,30.15,East,85,1.8,1.8,73,0.00,,,0.00,VWS V14.01,2013-05-04 10:41:00,
2013-05-04 06:46:00,41.5,33.5,30.15,East,85,1.8,1.8,73,0.00,,,0.00,VWS V14.01,2013-05-04 10:46:00,
2013-05-04 06:51:00,41.9,33.9,30.15,East,85,1.8,1.8,73,0.00,,,0.00,VWS V14.01,2013-05-04 10:51:00,
2013-05-04 06:56:00,42.4,34.8,30.15,East,85,1.8,1.8,74,0.00,,,0.00,VWS V14.01,2013-05-04 10:56:00,
2013-05-04 07:00:00,39.2,30.6,30.15,East,85,1.8,4.9,71,0.00,,,0.00,VWS V15.00,2013-05-04 11:00:00,
2013-05-04 07:01:00,42.8,34.8,30.15,East,85,1.8,1.8,73,0.00,,,0.00,VWS V14.01,2013-05-04 11:01:00,
2013-05-04 07:06:00,43.3,35.6,30.15,East,86,4.0,4.4,74,0.00,,,0.00,VWS V14.01,2013-05-04 11:06:00,
2013-05-04 07:11:00,43.9,36.1,30.15,East,93,4.9,5.3,74,0.00,,,0.00,VWS V14.01,2013-05-04 11:11:00,
2013-05-04 07:16:00,44.4,36.7,30.15,ESE,123,4.9,6.2,74,0.00,,,0.00,VWS V14.01,2013-05-04 11:16:00,
2013-05-04 07:21:00,45.0,37.2,30.15,ENE,69,6.7,6.7,74,0.00,,,0.00,VWS V14.01,2013-05-04 11:21:00,
2013-05-04 07:26:00,45.5,37.7,30.15,ENE,74,7.6,7.6,74,0.00,,,0.00,VWS V14.01,2013-05-04 11:26:00,
2013-05-04 07:31:00,46.0,38.6,30.15,ENE,72,5.8,7.6,75,0.00,,,0.00,VWS V14.01,2013-05-04 11:31:00,
2013-05-04 07:36:00,46.4,38.6,30.15,ENE,61,5.8,9.4,74,0.00,,,0.00,VWS V14.01,2013-05-04 11:36:00,
2013-05-04 07:41:00,46.8,38.9,30.15,ESE,103,1.8,9.4,74,0.00,,,0.00,VWS V14.01,2013-05-04 11:41:00,
2013-05-04 07:46:00,47.1,39.3,30.15,ENE,57,4.9,9.4,74,0.00,,,0.00,VWS V14.01,2013-05-04 11:46:00,
2013-05-04 07:51:00,47.5,39.6,30.15,ESE,105,7.6,9.4,74,0.00,,,0.00,VWS V14.01,2013-05-04 11:51:00,
2013-05-04 07:56:00,48.0,40.1,30.15,East,83,4.0,9.4,74,0.00,,,0.00,VWS V14.01,2013-05-04 11:56:00,
2013-05-04 08:00:00,42.8,34.8,30.15,East,85,1.8,1.8,73,0.00,,,0.00,VWS V15.00,2013-05-04 12:00:00,
2013-05-04 08:01:00,48.4,40.1,30.15,East,94,6.7,7.6,73,0.00,,,0.00,VWS V14.01,2013-05-04 12:01:00,
2013-05-04 08:06:00,48.7,40.5,30.15,ENE,75,4.4,7.6,73,0.00,,,0.00,VWS V14.01,2013-05-04 12:06:00,
2013-05-04 08:11:00,49.3,40.7,30.15,ENE,60,5.3,7.6,72,0.00,,,0.00,VWS V14.01,2013-05-04 12:11:00,
2013-05-04 08:17:00,49.8,40.4,30.15,SE,130,5.8,9.4,70,0.00,,,0.00,VWS V14.01,2013-05-04 12:17:00,
2013-05-04 08:22:00,50.2,39.7,30.15,ENE,71,5.3,9.4,67,0.00,,,0.00,VWS V14.01,2013-05-04 12:22:00,
2013-05-04 08:28:00,50.5,39.6,30.15,ESE,104,5.8,9.8,66,0.00,,,0.00,VWS V14.01,2013-05-04 12:28:00,
2013-05-04 08:33:00,50.9,38.4,30.15,ESE,112,4.4,10.5,62,0.00,,,0.00,VWS V14.01,2013-05-04 12:33:00,
2013-05-04 08:38:00,51.3,32.8,30.15,East,84,4.9,12.3,49,0.00,,,0.00,VWS V14.01,2013-05-04 12:38:00,
2013-05-04 08:43:00,51.8,33.3,30.15,ENE,65,5.3,12.3,49,0.00,,,0.00,VWS V14.01,2013-05-04 12:43:00,
2013-05-04 08:48:00,52.0,30.8,30.15,East,85,4.9,14.9,44,0.00,,,0.00,VWS V14.01,2013-05-04 12:48:00,
2013-05-04 08:53:00,52.3,29.4,30.15,East,90,10.0,14.9,41,0.00,,,0.00,VWS V14.01,2013-05-04 12:53:00,
2013-05-04 08:58:00,52.3,27.5,30.15,ESE,111,5.8,16.3,38,0.00,,,0.00,VWS V14.01,2013-05-04 12:58:00,
2013-05-04 09:00:00,48.4,40.5,30.15,ESE,108,7.6,9.4,74,0.00,,,0.00,VWS V15.00,2013-05-04 13:00:00,
2013-05-04 09:03:00,52.7,27.2,30.15,ENE,69,9.4,14.5,37,0.00,,,0.00,VWS V14.01,2013-05-04 13:03:00,
2013-05-04 09:08:00,52.9,26.7,30.15,East,79,8.5,14.5,36,0.00,,,0.00,VWS V14.01,2013-05-04 13:08:00,
2013-05-04 09:13:00,53.1,26.8,30.15,East,85,11.8,15.8,36,0.00,,,0.00,VWS V14.01,2013-05-04 13:13:00,
2013-05-04 09:18:00,53.2,26.3,30.15,SE,129,7.6,15.8,35,0.00,,,0.00,VWS V14.01,2013-05-04 13:18:00,
2013-05-04 09:23:00,53.6,25.2,30.15,ENE,58,7.6,15.8,33,0.00,,,0.00,VWS V14.01,2013-05-04 13:23:00,
2013-05-04 09:28:00,54.0,24.0,30.15,ENE,69,7.1,16.3,31,0.00,,,0.00,VWS V14.01,2013-05-04 13:28:00,
2013-05-04 09:33:00,54.3,24.4,30.15,East,84,7.6,16.3,31,0.00,,,0.00,VWS V14.01,2013-05-04 13:33:00,
2013-05-04 09:38:00,54.9,24.8,30.15,ESE,103,11.8,16.3,31,0.00,,,0.00,VWS V14.01,2013-05-04 13:38:00,
2013-05-04 09:43:00,55.2,24.4,30.15,NE,49,9.4,16.3,30,0.00,,,0.00,VWS V14.01,2013-05-04 13:43:00,
2013-05-04 09:48:00,55.2,23.5,30.15,NE,42,7.1,16.3,29,0.00,,,0.00,VWS V14.01,2013-05-04 13:48:00,
2013-05-04 09:53:00,55.4,22.9,30.15,East,98,12.3,17.2,28,0.00,,,0.00,VWS V14.01,2013-05-04 13:53:00,
2013-05-04 09:58:00,55.2,22.7,30.15,ENE,58,10.0,17.2,28,0.00,,,0.00,VWS V14.01,2013-05-04 13:58:00,
2013-05-04 10:00:00,52.5,27.7,30.15,ENE,67,10.5,16.3,38,0.00,,,0.00,VWS V15.00,2013-05-04 14:00:00,
2013-05-04 10:03:00,55.2,22.7,30.15,SE,124,4.0,16.3,28,0.00,,,0.00,VWS V14.01,2013-05-04 14:03:00,
2013-05-04 10:08:00,55.9,23.3,30.15,SE,127,14.1,19.2,28,0.00,,,0.00,VWS V14.01,2013-05-04 14:08:00,
2013-05-04 10:13:00,56.3,22.8,30.15,SE,133,8.0,19.2,27,0.00,,,0.00,VWS V14.01,2013-05-04 14:13:00,
2013-05-04 10:18:00,56.5,22.9,30.15,ENE,78,14.5,19.2,27,0.00,,,0.00,VWS V14.01,2013-05-04 14:18:00,
2013-05-04 10:23:00,56.8,23.2,30.15,East,97,8.0,19.2,27,0.00,,,0.00,VWS V14.01,2013-05-04 14:23:00,
2013-05-04 10:28:00,57.0,23.4,30.15,ENE,62,10.5,19.2,27,0.00,,,0.00,VWS V14.01,2013-05-04 14:28:00,
2013-05-04 10:33:00,57.2,22.6,30.15,South,185,11.8,19.2,26,0.00,,,0.00,VWS V14.01,2013-05-04 14:33:00,
2013-05-04 10:38:00,57.2,22.6,30.15,SE,131,12.3,19.2,26,0.00,,,0.00,VWS V14.01,2013-05-04 14:38:00,
2013-05-04 10:43:00,57.4,22.8,30.15,ESE,116,7.6,19.2,26,0.00,,,0.00,VWS V14.01,2013-05-04 14:43:00,
2013-05-04 10:48:00,57.4,22.8,30.18,ESE,119,9.8,19.2,26,0.00,,,0.00,VWS V14.01,2013-05-04 14:48:00,
2013-05-04 10:53:00,57.2,22.6,30.18,East,99,8.0,19.2,26,0.00,,,0.00,VWS V14.01,2013-05-04 14:53:00,
2013-05-04 10:58:00,57.2,22.6,30.18,East,95,7.6,19.2,26,0.00,,,0.00,VWS V14.01,2013-05-04 14:58:00,
2013-05-04 11:00:00,55.2,22.7,30.15,ENE,76,16.3,17.2,28,0.00,,,0.00,VWS V15.00,2013-05-04 15:00:00,
2013-05-04 11:03:00,57.6,23.0,30.18,ESE,108,12.7,13.6,26,0.00,,,0.00,VWS V14.01,2013-05-04 15:03:00,
2013-05-04 11:08:00,57.9,23.3,30.18,ESE,102,5.3,17.2,26,0.00,,,0.00,VWS V14.01,2013-05-04 15:08:00,
2013-05-04 11:13:00,57.9,23.3,30.18,NE,54,4.4,17.2,26,0.00,,,0.00,VWS V14.01,2013-05-04 15:13:00,
2013-05-04 11:18:00,57.9,23.3,30.18,NE,55,10.0,17.2,26,0.00,,,0.00,VWS V14.01,2013-05-04 15:18:00,
2013-05-04 11:23:00,57.9,22.3,30.18,ENE,69,17.6,17.6,25,0.00,,,0.00,VWS V14.01,2013-05-04 15:23:00,
2013-05-04 11:28:00,57.9,22.3,30.18,North,2,4.9,17.6,25,0.00,,,0.00,VWS V14.01,2013-05-04 15:28:00,
2013-05-04 11:33:00,57.9,22.3,30.18,East,83,10.5,17.6,25,0.00,,,0.00,VWS V14.01,2013-05-04 15:33:00,
2013-05-04 11:38:00,58.5,22.8,30.18,East,97,8.0,18.5,25,0.00,,,0.00,VWS V14.01,2013-05-04 15:38:00,
2013-05-04 11:43:00,58.5,22.8,30.18,NNE,25,10.5,18.5,25,0.00,,,0.00,VWS V14.01,2013-05-04 15:43:00,
2013-05-04 11:48:00,58.6,22.9,30.15,NE,38,10.5,18.5,25,0.00,,,0.00,VWS V14.01,2013-05-04 15:48:00,
2013-05-04 11:53:00,59.0,23.2,30.15,East,87,5.8,18.5,25,0.00,,,0.00,VWS V14.01,2013-05-04 15:53:00,
2013-05-04 11:58:00,59.0,23.2,30.15,ENE,70,18.1,18.5,25,0.00,,,0.00,VWS V14.01,2013-05-04 15:58:00,
2013-05-04 12:00:00,57.4,22.8,30.18,ENE,73,5.8,19.2,26,0.00,,,0.00,VWS V15.00,2013-05-04 16:00:00,
2013-05-04 12:03:00,59.2,23.4,30.15,East,84,9.8,14.1,25,0.00,,,0.00,VWS V14.01,2013-05-04 16:03:00,
2013-05-04 12:08:00,59.4,22.6,30.15,East,84,9.8,15.8,24,0.00,,,0.00,VWS V14.01,2013-05-04 16:08:00,
2013-05-04 12:13:00,59.4,23.6,30.15,ENE,75,10.0,16.3,25,0.00,,,0.00,VWS V14.01,2013-05-04 16:13:00,
2013-05-04 12:18:00,59.4,22.6,30.15,NNE,33,18.5,19.6,24,0.00,,,0.00,VWS V14.01,2013-05-04 16:18:00,
2013-05-04 12:23:00,59.4,22.6,30.15,ENE,64,8.0,19.6,24,0.00,,,0.00,VWS V14.01,2013-05-04 16:23:00,
2013-05-04 12:28:00,59.7,23.9,30.15,ENE,58,8.5,19.6,25,0.00,,,0.00,VWS V14.01,2013-05-04 16:28:00,
2013-05-04 12:33:00,60.3,23.4,30.15,SE,128,5.8,19.6,24,0.00,,,0.00,VWS V14.01,2013-05-04 16:33:00,
2013-05-04 12:38:00,59.7,22.9,30.15,ENE,71,9.8,19.6,24,0.00,,,0.00,VWS V14.01,2013-05-04 16:38:00,
2013-05-04 12:43:00,59.7,22.9,30.15,ENE,63,10.9,19.6,24,0.00,,,0.00,VWS V14.01,2013-05-04 16:43:00,
2013-05-04 12:48:00,59.7,22.9,30.15,NE,45,14.5,19.6,24,0.00,,,0.00,VWS V14.01,2013-05-04 16:48:00,
2013-05-04 12:53:00,59.9,23.0,30.15,NE,54,14.1,19.6,24,0.00,,,0.00,VWS V14.01,2013-05-04 16:53:00,
2013-05-04 12:58:00,60.1,23.2,30.15,East,99,10.0,19.6,24,0.00,,,0.00,VWS V14.01,2013-05-04 16:58:00,
2013-05-04 13:00:00,59.0,23.2,30.15,East,82,5.8,18.5,25,0.00,,,0.00,VWS V15.00,2013-05-04 17:00:00,
2013-05-04 13:03:00,60.3,23.4,30.15,NNE,15,14.9,20.5,24,0.00,,,0.00,VWS V14.01,2013-05-04 17:03:00,
2013-05-04 13:08:00,60.3,23.4,30.15,ENE,68,12.7,20.5,24,0.00,,,0.00,VWS V14.01,2013-05-04 17:08:00,
2013-05-04 13:13:00,60.1,23.2,30.15,NE,56,18.8,20.5,24,0.00,,,0.00,VWS V14.01,2013-05-04 17:13:00,
2013-05-04 13:18:00,59.7,22.9,30.15,SSE,150,15.4,21.9,24,0.00,,,0.00,VWS V14.01,2013-05-04 17:18:00,
2013-05-04 13:23:00,59.7,22.9,30.15,ENE,78,10.0,21.9,24,0.00,,,0.00,VWS V14.01,2013-05-04 17:23:00,
2013-05-04 13:28:00,59.9,23.0,30.15,NE,49,6.7,21.9,24,0.00,,,0.00,VWS V14.01,2013-05-04 17:28:00,
2013-05-04 13:33:00,60.1,23.2,30.15,NNE,30,18.5,22.3,24,0.00,,,0.00,VWS V14.01,2013-05-04 17:33:00,
2013-05-04 13:38:00,60.3,23.4,30.15,ESE,115,5.8,22.8,24,0.00,,,0.00,VWS V14.01,2013-05-04 17:38:00,
2013-05-04 13:43:00,60.8,23.8,30.15,East,84,14.1,22.8,24,0.00,,,0.00,VWS V14.01,2013-05-04 17:43:00,
2013-05-04 13:48:00,61.3,24.3,30.15,East,86,12.7,22.8,24,0.00,,,0.00,VWS V14.01,2013-05-04 17:48:00,
2013-05-04 13:53:00,61.2,24.1,30.15,NE,45,14.1,22.8,24,0.00,,,0.00,VWS V14.01,2013-05-04 17:53:00,
2013-05-04 13:58:00,61.3,24.3,30.15,ENE,76,10.0,22.8,24,0.00,,,0.00,VWS V14.01,2013-05-04 17:58:00,
2013-05-04 14:00:00,60.1,23.2,30.15,NE,54,14.9,19.6,24,0.00,,,0.00,VWS V15.00,2013-05-04 18:00:00,
2013-05-04 14:03:00,61.5,24.4,30.15,SE,142,12.7,19.2,24,0.00,,,0.00,VWS V14.01,2013-05-04 18:03:00,
2013-05-04 14:08:00,61.7,24.6,30.15,ENE,67,9.8,19.2,24,0.00,,,0.00,VWS V14.01,2013-05-04 18:08:00,
2013-05-04 14:13:00,61.7,24.6,30.15,East,81,9.8,19.2,24,0.00,,,0.00,VWS V14.01,2013-05-04 18:13:00,
2013-05-04 14:18:00,61.7,24.6,30.15,SSE,164,12.7,19.2,24,0.00,,,0.00,VWS V14.01,2013-05-04 18:18:00,
2013-05-04 14:23:00,62.1,21.7,30.15,East,99,11.8,21.0,21,0.00,,,0.00,VWS V14.01,2013-05-04 18:23:00,
2013-05-04 14:28:00,61.9,24.7,30.15,NNE,13,10.0,21.0,24,0.00,,,0.00,VWS V14.01,2013-05-04 18:28:00,
2013-05-04 14:33:00,62.4,25.2,30.15,NE,46,7.1,21.0,24,0.00,,,0.00,VWS V14.01,2013-05-04 18:33:00,
2013-05-04 14:38:00,63.0,24.6,30.15,East,80,5.3,21.0,23,0.00,,,0.00,VWS V14.01,2013-05-04 18:38:00,
2013-05-04 14:43:00,63.1,22.6,30.15,North,9,4.4,21.0,21,0.00,,,0.00,VWS V14.01,2013-05-04 18:43:00,
2013-05-04 14:48:00,62.8,22.3,30.15,East,80,9.8,21.0,21,0.00,,,0.00,VWS V14.01,2013-05-04 18:48:00,
2013-05-04 14:53:00,63.3,24.9,30.15,NE,37,12.3,21.0,23,0.00,,,0.00,VWS V14.01,2013-05-04 18:53:00,
2013-05-04 14:58:00,63.5,22.9,30.15,ENE,71,7.1,21.0,21,0.00,,,0.00,VWS V14.01,2013-05-04 18:58:00,
2013-05-04 15:00:00,61.3,24.3,30.15,ESE,115,8.0,22.8,24,0.00,,,0.00,VWS V15.00,2013-05-04 19:00:00,
2013-05-04 15:03:00,63.5,22.9,30.15,SE,136,8.0,16.7,21,0.00,,,0.00,VWS V14.01,2013-05-04 19:03:00,
2013-05-04 15:08:00,64.0,23.3,30.15,ENE,67,12.7,16.7,21,0.00,,,0.00,VWS V14.01,2013-05-04 19:08:00,
2013-05-04 15:13:00,64.2,23.5,30.15,ESE,113,6.7,17.6,21,0.00,,,0.00,VWS V14.01,2013-05-04 19:13:00,
2013-05-04 15:18:00,64.2,23.5,30.15,SE,135,6.7,17.6,21,0.00,,,0.00,VWS V14.01,2013-05-04 19:18:00,
2013-05-04 15:23:00,63.9,23.2,30.12,ESE,121,12.3,17.6,21,0.00,,,0.00,VWS V14.01,2013-05-04 19:23:00,
2013-05-04 15:28:00,64.4,22.5,30.12,ESE,114,9.8,17.6,20,0.00,,,0.00,VWS V14.01,2013-05-04 19:28:00,
2013-05-04 15:33:00,64.4,22.5,30.12,East,85,12.7,17.6,20,0.00,,,0.00,VWS V14.01,2013-05-04 19:33:00,
2013-05-04 15:38:00,64.8,22.8,30.12,SE,136,12.7,17.6,20,0.00,,,0.00,VWS V14.01,2013-05-04 19:38:00,
2013-05-04 15:43:00,65.1,23.1,30.12,ESE,116,9.4,17.6,20,0.00,,,0.00,VWS V14.01,2013-05-04 19:43:00,
2013-05-04 15:48:00,65.3,23.2,30.12,ESE,104,5.8,17.6,20,0.00,,,0.00,VWS V14.01,2013-05-04 19:48:00,
2013-05-04 15:53:00,64.8,22.8,30.12,East,83,9.4,17.6,20,0.00,,,0.00,VWS V14.01,2013-05-04 19:53:00,
2013-05-04 15:58:00,65.5,23.4,30.12,ENE,68,5.3,17.6,20,0.00,,,0.00,VWS V14.01,2013-05-04 19:58:00,
2013-05-04 16:00:00,63.7,23.0,30.15,ENE,67,10.0,21.0,21,0.00,,,0.00,VWS V15.00,2013-05-04 20:00:00,
2013-05-04 16:03:00,65.7,23.5,30.12,ENE,74,8.0,11.8,20,0.00,,,0.00,VWS V14.01,2013-05-04 20:03:00,
2013-05-04 16:08:00,66.2,24.0,30.12,East,90,16.3,17.2,20,0.00,,,0.00,VWS V14.01,2013-05-04 20:08:00,
2013-05-04 16:13:00,66.0,23.8,30.12,ENE,73,12.7,17.2,20,0.00,,,0.00,VWS V14.01,2013-05-04 20:13:00,
2013-05-04 16:18:00,65.8,23.7,30.12,ENE,57,19.2,19.2,20,0.00,,,0.00,VWS V14.01,2013-05-04 20:18:00,
2013-05-04 16:23:00,66.4,24.1,30.12,ENE,72,15.4,19.2,20,0.00,,,0.00,VWS V14.01,2013-05-04 20:23:00,
2013-05-04 16:28:00,66.0,23.8,30.12,ESE,122,13.6,19.2,20,0.00,,,0.00,VWS V14.01,2013-05-04 20:28:00,
2013-05-04 16:33:00,66.4,20.3,30.12,ESE,119,10.5,19.2,17,0.00,,,0.00,VWS V14.01,2013-05-04 20:33:00,
2013-05-04 16:38:00,66.9,20.7,30.12,ENE,65,12.7,19.2,17,0.00,,,0.00,VWS V14.01,2013-05-04 20:38:00,
2013-05-04 16:43:00,67.5,25.0,30.12,East,95,8.0,19.2,20,0.00,,,0.00,VWS V14.01,2013-05-04 20:43:00,
2013-05-04 16:48:00,67.6,21.3,30.12,East,81,7.6,19.2,17,0.00,,,0.00,VWS V14.01,2013-05-04 20:48:00,
2013-05-04 16:53:00,67.3,24.9,30.12,ENE,69,4.4,19.2,20,0.00,,,0.00,VWS V14.01,2013-05-04 20:53:00,
2013-05-04 16:58:00,68.0,21.6,30.12,ENE,57,7.6,19.2,17,0.00,,,0.00,VWS V14.01,2013-05-04 20:58:00,
2013-05-04 17:00:00,65.7,23.5,30.12,NE,45,11.8,17.6,20,0.00,,,0.00,VWS V15.00,2013-05-04 21:00:00,
2013-05-04 17:03:00,68.0,21.6,30.12,ESE,116,5.8,10.5,17,0.00,,,0.00,VWS V14.01,2013-05-04 21:03:00,
2013-05-04 17:08:00,68.5,22.0,30.12,ENE,69,7.6,12.7,17,0.00,,,0.00,VWS V14.01,2013-05-04 21:08:00,
2013-05-04 17:13:00,72.1,23.5,30.12,SE,130,8.0,13.2,16,0.00,,,0.00,VWS V14.01,2013-05-04 21:13:00,
2013-05-04 17:18:00,73.4,24.5,30.12,East,96,4.4,13.2,16,0.00,,,0.00,VWS V14.01,2013-05-04 21:18:00,
2013-05-04 17:23:00,73.0,24.2,30.12,ENE,63,4.0,14.5,16,0.00,,,0.00,VWS V14.01,2013-05-04 21:23:00,
2013-05-04 17:28:00,77.7,26.4,30.12,ENE,78,5.8,15.4,15,0.00,,,0.00,VWS V14.01,2013-05-04 21:28:00,
2013-05-04 17:33:00,76.3,25.3,30.12,NE,49,6.7,15.4,15,0.00,,,0.00,VWS V14.01,2013-05-04 21:33:00,
2013-05-04 17:38:00,76.5,25.4,30.12,East,89,8.0,15.4,15,0.00,,,0.00,VWS V14.01,2013-05-04 21:38:00,
2013-05-04 17:43:00,80.4,28.6,30.12,ENE,76,7.1,15.4,15,0.00,,,0.00,VWS V14.01,2013-05-04 21:43:00,
2013-05-04 17:48:00,76.3,25.3,30.12,ENE,70,7.1,15.4,15,0.00,,,0.00,VWS V14.01,2013-05-04 21:48:00,
2013-05-04 17:53:00,72.9,24.1,30.12,NNW,341,6.7,15.4,16,0.00,,,0.00,VWS V14.01,2013-05-04 21:53:00,
2013-05-04 17:58:00,70.7,23.8,30.12,East,79,15.8,15.8,17,0.00,,,0.00,VWS V14.01,2013-05-04 21:58:00,
2013-05-04 18:00:00,67.8,21.5,30.12,East,83,7.6,19.2,17,0.00,,,0.00,VWS V15.00,2013-05-04 22:00:00,
2013-05-04 18:03:00,69.6,22.9,30.12,ESE,113,8.0,11.8,17,0.00,,,0.00,VWS V14.01,2013-05-04 22:03:00,
2013-05-04 18:08:00,67.6,21.3,30.12,ENE,73,8.0,14.5,17,0.00,,,0.00,VWS V14.01,2013-05-04 22:08:00,
2013-05-04 18:13:00,67.1,20.9,30.12,ENE,78,10.0,14.5,17,0.00,,,0.00,VWS V14.01,2013-05-04 22:13:00,
2013-05-04 18:18:00,71.2,24.2,30.12,ENE,75,5.3,14.5,17,0.00,,,0.00,VWS V14.01,2013-05-04 22:18:00,
2013-05-04 18:23:00,73.0,24.2,30.12,ESE,108,12.3,14.5,16,0.00,,,0.00,VWS V14.01,2013-05-04 22:23:00,
2013-05-04 18:28:00,69.1,22.5,30.12,East,97,1.8,14.5,17,0.00,,,0.00,VWS V14.01,2013-05-04 22:28:00,
2013-05-04 18:33:00,65.7,21.0,30.12,ENE,74,9.8,14.5,18,0.00,,,0.00,VWS V14.01,2013-05-04 22:33:00,
2013-05-04 18:38:00,62.1,19.3,30.12,East,95,11.4,14.5,19,0.00,,,0.00,VWS V14.01,2013-05-04 22:38:00,
2013-05-04 18:43:00,61.5,18.9,30.12,SSE,150,8.0,14.5,19,0.00,,,0.00,VWS V14.01,2013-05-04 22:43:00,
2013-05-04 18:48:00,61.7,19.0,30.12,East,100,6.7,16.7,19,0.00,,,0.00,VWS V14.01,2013-05-04 22:48:00,
2013-05-04 18:53:00,64.4,20.0,30.12,East,95,5.8,16.7,18,0.00,,,0.00,VWS V14.01,2013-05-04 22:53:00,
2013-05-04 18:58:00,64.6,20.1,30.12,ESE,115,8.9,16.7,18,0.00,,,0.00,VWS V14.01,2013-05-04 22:58:00,
2013-05-04 19:00:00,69.3,22.6,30.12,East,82,8.5,15.8,17,0.00,,,0.00,VWS V15.00,2013-05-04 23:00:00,
2013-05-04 19:03:00,62.8,18.7,30.12,East,89,8.0,14.9,18,0.00,,,0.00,VWS V14.01,2013-05-04 23:03:00,
2013-05-04 19:08:00,59.2,17.0,30.12,ENE,58,5.3,14.9,19,0.00,,,0.00,VWS V14.01,2013-05-04 23:08:00,
2013-05-04 19:13:00,56.1,15.6,30.12,East,83,4.4,14.9,20,0.00,,,0.00,VWS V14.01,2013-05-04 23:13:00,
2013-05-04 19:18:00,53.6,16.7,30.12,East,86,4.9,14.9,23,0.00,,,0.00,VWS V14.01,2013-05-04 23:18:00,
2013-05-04 19:23:00,51.8,18.0,30.12,East,83,11.4,14.9,26,0.00,,,0.00,VWS V14.01,2013-05-04 23:23:00,
2013-05-04 19:28:00,50.7,17.1,30.12,East,83,5.3,14.9,26,0.00,,,0.00,VWS V14.01,2013-05-04 23:28:00,
2013-05-04 19:33:00,50.0,17.4,30.12,ESE,105,7.1,14.9,27,0.00,,,0.00,VWS V14.01,2013-05-04 23:33:00,
2013-05-04 19:38:00,49.3,17.6,30.12,SE,133,7.1,14.9,28,0.00,,,0.00,VWS V14.01,2013-05-04 23:38:00,
2013-05-04 19:43:00,48.9,17.3,30.12,ENE,72,6.7,14.9,28,0.00,,,0.00,VWS V14.01,2013-05-04 23:43:00,
2013-05-04 19:48:00,48.4,16.8,30.12,ENE,72,5.3,14.9,28,0.00,,,0.00,VWS V14.01,2013-05-04 23:48:00,
2013-05-04 19:53:00,48.0,17.3,30.12,East,95,4.0,14.9,29,0.00,,,0.00,VWS V14.01,2013-05-04 23:53:00,
2013-05-04 19:58:00,47.5,17.6,30.12,SE,141,5.8,14.9,30,0.00,,,0.00,VWS V14.01,2013-05-04 23:58:00,
2013-05-04 20:00:00,64.0,19.7,30.12,East,93,6.7,16.7,18,0.00,,,0.00,VWS V15.00,2013-05-05 00:00:00,
2013-05-04 20:03:00,47.1,17.3,30.12,ESE,113,7.6,10.0,30,0.00,,,0.00,VWS V14.01,2013-05-05 00:03:00,
2013-05-04 20:08:00,46.8,17.7,30.12,ENE,75,5.8,10.0,31,0.00,,,0.00,VWS V14.01,2013-05-05 00:08:00,
2013-05-04 20:13:00,46.6,17.6,30.12,East,90,7.1,10.0,31,0.00,,,0.00,VWS V14.01,2013-05-05 00:13:00,
2013-05-04 20:18:00,46.4,18.2,30.12,East,95,4.0,10.0,32,0.00,,,0.00,VWS V14.01,2013-05-05 00:18:00,
2013-05-04 20:23:00,46.2,18.7,30.12,ENE,63,4.9,10.0,33,0.00,,,0.00,VWS V14.01,2013-05-05 00:23:00,
2013-05-04 20:28:00,45.9,18.4,30.12,East,86,4.4,10.0,33,0.00,,,0.00,VWS V14.01,2013-05-05 00:28:00,
2013-05-04 20:33:00,45.7,18.9,30.12,East,79,4.9,10.0,34,0.00,,,0.00,VWS V14.01,2013-05-05 00:33:00,
2013-05-04 20:38:00,45.5,18.8,30.12,ENE,62,1.8,10.0,34,0.00,,,0.00,VWS V14.01,2013-05-05 00:38:00,
2013-05-04 20:43:00,45.3,19.3,30.12,ENE,59,4.0,10.0,35,0.00,,,0.00,VWS V14.01,2013-05-05 00:43:00,
2013-05-04 20:48:00,45.1,19.1,30.12,ENE,61,1.8,10.0,35,0.00,,,0.00,VWS V14.01,2013-05-05 00:48:00,
2013-05-04 20:53:00,44.8,19.5,30.12,ENE,68,1.8,10.0,36,0.00,,,0.00,VWS V14.01,2013-05-05 00:53:00,
2013-05-04 20:58:00,44.6,19.3,30.12,NE,50,4.9,10.0,36,0.00,,,0.00,VWS V14.01,2013-05-05 00:58:00,
2013-05-04 21:00:00,47.3,17.5,30.12,East,80,5.3,14.9,30,0.00,,,0.00,VWS V15.00,2013-05-05 01:00:00,
2013-05-04 21:03:00,44.4,19.8,30.12,ENE,68,4.4,5.3,37,0.00,,,0.00,VWS V14.01,2013-05-05 01:03:00,
2013-05-04 21:08:00,44.2,19.6,30.12,ENE,77,5.8,5.8,37,0.00,,,0.00,VWS V14.01,2013-05-05 01:08:00,
2013-05-04 21:13:00,44.1,20.1,30.12,ENE,60,1.8,6.7,38,0.00,,,0.00,VWS V14.01,2013-05-05 01:13:00,
2013-05-04 21:18:00,43.7,19.8,30.12,ESE,104,1.8,6.7,38,0.00,,,0.00,VWS V14.01,2013-05-05 01:18:00,
2013-05-04 21:23:00,43.7,19.8,30.12,East,85,4.0,6.7,38,0.00,,,0.00,VWS V14.01,2013-05-05 01:23:00,
2013-05-04 21:28:00,43.5,19.6,30.12,ENE,74,4.9,7.6,38,0.00,,,0.00,VWS V14.01,2013-05-05 01:28:00,
2013-05-04 21:33:00,43.3,19.5,30.12,ESE,119,4.4,7.6,38,0.00,,,0.00,VWS V14.01,2013-05-05 01:33:00,
2013-05-04 21:38:00,43.2,19.3,30.12,ENE,72,1.8,7.6,38,0.00,,,0.00,VWS V14.01,2013-05-05 01:38:00,
2013-05-04 21:43:00,43.0,19.1,30.12,ENE,65,5.3,7.6,38,0.00,,,0.00,VWS V14.01,2013-05-05 01:43:00,
2013-05-04 21:48:00,42.8,19.0,30.12,ESE,113,4.0,7.6,38,0.00,,,0.00,VWS V14.01,2013-05-05 01:48:00,
2013-05-04 21:53:00,42.6,19.4,30.12,ESE,111,5.3,7.6,39,0.00,,,0.00,VWS V14.01,2013-05-05 01:53:00,
2013-05-04 21:58:00,42.4,19.2,30.12,East,99,4.9,7.6,39,0.00,,,0.00,VWS V14.01,2013-05-05 01:58:00,
2013-05-04 22:00:00,44.6,19.3,30.12,ENE,70,4.4,10.0,36,0.00,,,0.00,VWS V15.00,2013-05-05 02:00:00,
2013-05-04 22:03:00,42.4,19.2,30.12,ESE,117,1.8,4.9,39,0.00,,,0.00,VWS V14.01,2013-05-05 02:03:00,
2013-05-04 22:08:00,42.3,19.1,30.12,East,80,1.8,5.8,39,0.00,,,0.00,VWS V14.01,2013-05-05 02:08:00,
2013-05-04 22:13:00,42.1,19.5,30.12,ESE,112,7.6,7.6,40,0.00,,,0.00,VWS V14.01,2013-05-05 02:13:00,
2013-05-04 22:18:00,42.1,19.5,30.12,East,96,1.8,7.6,40,0.00,,,0.00,VWS V14.01,2013-05-05 02:18:00,
2013-05-04 22:23:00,41.9,19.4,30.12,East,88,1.8,7.6,40,0.00,,,0.00,VWS V14.01,2013-05-05 02:23:00,
2013-05-04 22:28:00,41.7,19.2,30.12,ENE,76,4.0,8.0,40,0.00,,,0.00,VWS V14.01,2013-05-05 02:28:00,
2013-05-04 22:33:00,41.5,19.0,30.12,ENE,71,4.4,8.0,40,0.00,,,0.00,VWS V14.01,2013-05-05 02:33:00,
2013-05-04 22:38:00,41.5,19.6,30.12,ENE,68,4.4,8.0,41,0.00,,,0.00,VWS V14.01,2013-05-05 02:38:00,
2013-05-04 22:43:00,41.4,19.5,30.12,ENE,76,4.4,8.0,41,0.00,,,0.00,VWS V14.01,2013-05-05 02:43:00,
2013-05-04 22:48:00,41.2,19.3,30.12,ENE,71,5.3,8.0,41,0.00,,,0.00,VWS V14.01,2013-05-05 02:48:00,
2013-05-04 22:53:00,41.2,19.3,30.12,East,100,4.4,8.0,41,0.00,,,0.00,VWS V14.01,2013-05-05 02:53:00,
2013-05-04 22:58:00,41.0,19.7,30.12,East,91,1.8,8.0,42,0.00,,,0.00,VWS V14.01,2013-05-05 02:58:00,
2013-05-04 23:00:00,42.4,19.2,30.12,SE,126,4.0,7.6,39,0.00,,,0.00,VWS V15.00,2013-05-05 03:00:00,
2013-05-04 23:03:00,41.0,19.7,30.12,East,92,7.1,7.6,42,0.00,,,0.00,VWS V14.01,2013-05-05 03:03:00,
2013-05-04 23:08:00,41.0,20.2,30.12,ENE,72,7.1,7.6,43,0.00,,,0.00,VWS V14.01,2013-05-05 03:08:00,
2013-05-04 23:13:00,41.0,20.2,30.12,ENE,62,4.9,7.6,43,0.00,,,0.00,VWS V14.01,2013-05-05 03:13:00,
2013-05-04 23:18:00,41.0,20.8,30.12,East,91,6.2,7.6,44,0.00,,,0.00,VWS V14.01,2013-05-05 03:18:00,
2013-05-04 23:23:00,41.0,20.8,30.12,ENE,74,5.8,7.6,44,0.00,,,0.00,VWS V14.01,2013-05-05 03:23:00,
2013-05-04 23:27:00,41.0,21.3,30.12,East,81,4.0,7.6,45,0.00,,,0.00,VWS V14.01,2013-05-05 03:27:00,
2013-05-04 23:32:00,41.0,21.8,30.12,ENE,61,4.9,7.6,46,0.00,,,0.00,VWS V14.01,2013-05-05 03:32:00,
2013-05-04 23:37:00,40.8,22.2,30.12,ENE,71,5.3,7.6,47,0.00,,,0.00,VWS V14.01,2013-05-05 03:37:00,
2013-05-04 23:42:00,40.8,22.7,30.12,ENE,65,1.8,7.6,48,0.00,,,0.00,VWS V14.01,2013-05-05 03:42:00,
2013-05-04 23:47:00,40.6,23.0,30.12,East,89,1.8,7.6,49,0.00,,,0.00,VWS V14.01,2013-05-05 03:47:00,
2013-05-04 23:52:00,40.6,23.0,30.12,ENE,78,4.9,7.6,49,0.00,,,0.00,VWS V14.01,2013-05-05 03:52:00,
2013-05-04 23:57:00,40.6,23.5,30.12,ESE,108,1.8,7.6,50,0.00,,,0.00,VWS V14.01,2013-05-05 03:57:00,